sensor_id;sensor_type;location;lat;lon;timestamp;P1;durP1;ratioP1;P2;durP2;ratioP2
18224;SDS011;9237;48.590;8.854;2022-09-09T00:00:15;0.80;;;0.80;;
18224;SDS011;9237;48.590;8.854;2022-09-09T00:02:44;0.70;;;0.70;;
18224;SDS011;9237;48.590;8.854;2022-09-09T00:05:19;0.80;;;0.80;;
18224;SDS011;9237;48.590;8.854;2022-09-09T00:07:53;0.70;;;0.70;;
18224;SDS011;9237;48.590;8.854;2022-09-09T00:10:26;0.80;;;0.80;;
18224;SDS011;9237;48.590;8.854;2022-09-09T00:12:57;0.70;;;0.70;;
18224;SDS011;9237;48.590;8.854;2022-09-09T00:15:33;0.70;;;0.70;;
18224;SDS011;9237;48.590;8.854;2022-09-09T00:18:07;0.80;;;0.80;;
18224;SDS011;9237;48.590;8.854;2022-09-09T00:20:43;0.70;;;0.70;;
18224;SDS011;9237;48.590;8.854;2022-09-09T00:23:17;0.77;;;0.77;;
18224;SDS011;9237;48.590;8.854;2022-09-09T00:25:52;0.80;;;0.80;;
18224;SDS011;9237;48.590;8.854;2022-09-09T00:28:24;0.70;;;0.70;;
18224;SDS011;9237;48.590;8.854;2022-09-09T00:30:55;0.70;;;0.70;;
18224;SDS011;9237;48.590;8.854;2022-09-09T00:33:26;0.80;;;0.80;;
18224;SDS011;9237;48.590;8.854;2022-09-09T00:35:55;0.70;;;0.70;;
18224;SDS011;9237;48.590;8.854;2022-09-09T00:38:25;0.70;;;0.70;;
18224;SDS011;9237;48.590;8.854;2022-09-09T00:40:58;0.70;;;0.70;;
18224;SDS011;9237;48.590;8.854;2022-09-09T00:43:32;0.70;;;0.70;;
18224;SDS011;9237;48.590;8.854;2022-09-09T00:49:11;0.70;;;0.70;;
18224;SDS011;9237;48.590;8.854;2022-09-09T00:51:51;0.70;;;0.70;;
18224;SDS011;9237;48.590;8.854;2022-09-09T00:54:30;0.70;;;0.70;;
18224;SDS011;9237;48.590;8.854;2022-09-09T00:57:06;0.80;;;0.80;;
18224;SDS011;9237;48.590;8.854;2022-09-09T00:59:43;0.70;;;0.70;;
18224;SDS011;9237;48.590;8.854;2022-09-09T01:02:16;0.80;;;0.80;;
18224;SDS011;9237;48.590;8.854;2022-09-09T01:04:53;0.70;;;0.70;;
18224;SDS011;9237;48.590;8.854;2022-09-09T01:07:22;0.80;;;0.80;;
18224;SDS011;9237;48.590;8.854;2022-09-09T01:09:54;0.80;;;0.80;;
18224;SDS011;9237;48.590;8.854;2022-09-09T01:12:32;0.80;;;0.80;;
18224;SDS011;9237;48.590;8.854;2022-09-09T01:15:08;0.70;;;0.70;;
18224;SDS011;9237;48.590;8.854;2022-09-09T01:17:44;0.70;;;0.70;;
18224;SDS011;9237;48.590;8.854;2022-09-09T01:20:17;0.80;;;0.80;;
18224;SDS011;9237;48.590;8.854;2022-09-09T01:22:53;0.80;;;0.80;;
18224;SDS011;9237;48.590;8.854;2022-09-09T01:28:39;0.80;;;0.80;;
18224;SDS011;9237;48.590;8.854;2022-09-09T01:31:07;0.70;;;0.70;;
18224;SDS011;9237;48.590;8.854;2022-09-09T01:33:37;0.70;;;0.70;;
18224;SDS011;9237;48.590;8.854;2022-09-09T01:36:04;0.70;;;0.70;;
18224;SDS011;9237;48.590;8.854;2022-09-09T01:38:34;0.80;;;0.80;;
18224;SDS011;9237;48.590;8.854;2022-09-09T01:41:02;0.70;;;0.70;;
18224;SDS011;9237;48.590;8.854;2022-09-09T01:43:31;0.70;;;0.70;;
18224;SDS011;9237;48.590;8.854;2022-09-09T01:45:59;0.77;;;0.77;;
18224;SDS011;9237;48.590;8.854;2022-09-09T01:48:27;0.70;;;0.70;;
18224;SDS011;9237;48.590;8.854;2022-09-09T01:50:55;0.80;;;0.80;;
18224;SDS011;9237;48.590;8.854;2022-09-09T01:53:22;0.70;;;0.70;;
18224;SDS011;9237;48.590;8.854;2022-09-09T01:55:51;0.70;;;0.70;;
18224;SDS011;9237;48.590;8.854;2022-09-09T01:58:29;0.70;;;0.70;;
18224;SDS011;9237;48.590;8.854;2022-09-09T02:01:08;0.70;;;0.70;;
18224;SDS011;9237;48.590;8.854;2022-09-09T02:03:51;0.80;;;0.80;;
18224;SDS011;9237;48.590;8.854;2022-09-09T02:06:23;0.70;;;0.70;;
18224;SDS011;9237;48.590;8.854;2022-09-09T02:08:55;0.70;;;0.70;;
18224;SDS011;9237;48.590;8.854;2022-09-09T02:11:25;0.80;;;0.80;;
18224;SDS011;9237;48.590;8.854;2022-09-09T02:13:54;0.70;;;0.70;;
18224;SDS011;9237;48.590;8.854;2022-09-09T02:16:25;0.80;;;0.80;;
18224;SDS011;9237;48.590;8.854;2022-09-09T02:18:56;0.80;;;0.80;;
18224;SDS011;9237;48.590;8.854;2022-09-09T02:21:29;0.77;;;0.77;;
18224;SDS011;9237;48.590;8.854;2022-09-09T02:24:00;0.70;;;0.70;;
18224;SDS011;9237;48.590;8.854;2022-09-09T02:26:33;0.70;;;0.70;;
18224;SDS011;9237;48.590;8.854;2022-09-09T02:29:04;0.70;;;0.70;;
18224;SDS011;9237;48.590;8.854;2022-09-09T02:31:35;0.80;;;0.80;;
18224;SDS011;9237;48.590;8.854;2022-09-09T02:34:04;0.70;;;0.70;;
18224;SDS011;9237;48.590;8.854;2022-09-09T02:36:34;0.77;;;0.77;;
18224;SDS011;9237;48.590;8.854;2022-09-09T02:39:04;0.70;;;0.70;;
18224;SDS011;9237;48.590;8.854;2022-09-09T02:41:35;0.80;;;0.80;;
18224;SDS011;9237;48.590;8.854;2022-09-09T02:44:08;0.77;;;0.77;;
18224;SDS011;9237;48.590;8.854;2022-09-09T02:46:39;0.73;;;0.73;;
18224;SDS011;9237;48.590;8.854;2022-09-09T02:49:20;0.80;;;0.80;;
18224;SDS011;9237;48.590;8.854;2022-09-09T02:51:54;0.70;;;0.70;;
18224;SDS011;9237;48.590;8.854;2022-09-09T02:54:27;0.77;;;0.77;;
18224;SDS011;9237;48.590;8.854;2022-09-09T02:56:58;0.70;;;0.70;;
18224;SDS011;9237;48.590;8.854;2022-09-09T02:59:31;0.70;;;0.70;;
18224;SDS011;9237;48.590;8.854;2022-09-09T03:01:59;0.70;;;0.70;;
18224;SDS011;9237;48.590;8.854;2022-09-09T03:04:26;0.70;;;0.70;;
18224;SDS011;9237;48.590;8.854;2022-09-09T03:06:53;0.70;;;0.70;;
18224;SDS011;9237;48.590;8.854;2022-09-09T03:09:20;0.73;;;0.73;;
18224;SDS011;9237;48.590;8.854;2022-09-09T03:11:47;0.70;;;0.70;;
18224;SDS011;9237;48.590;8.854;2022-09-09T03:14:14;0.70;;;0.70;;
18224;SDS011;9237;48.590;8.854;2022-09-09T03:16:42;0.70;;;0.70;;
18224;SDS011;9237;48.590;8.854;2022-09-09T03:19:09;0.70;;;0.70;;
18224;SDS011;9237;48.590;8.854;2022-09-09T03:21:36;0.80;;;0.80;;
18224;SDS011;9237;48.590;8.854;2022-09-09T03:24:03;0.80;;;0.80;;
18224;SDS011;9237;48.590;8.854;2022-09-09T03:26:31;0.80;;;0.80;;
18224;SDS011;9237;48.590;8.854;2022-09-09T03:28:58;0.70;;;0.70;;
18224;SDS011;9237;48.590;8.854;2022-09-09T03:31:26;0.80;;;0.80;;
18224;SDS011;9237;48.590;8.854;2022-09-09T03:33:56;0.80;;;0.80;;
18224;SDS011;9237;48.590;8.854;2022-09-09T03:36:23;0.73;;;0.73;;
18224;SDS011;9237;48.590;8.854;2022-09-09T03:38:51;0.80;;;0.80;;
18224;SDS011;9237;48.590;8.854;2022-09-09T03:41:19;0.70;;;0.70;;
18224;SDS011;9237;48.590;8.854;2022-09-09T03:43:48;0.70;;;0.70;;
18224;SDS011;9237;48.590;8.854;2022-09-09T03:46:15;0.70;;;0.70;;
18224;SDS011;9237;48.590;8.854;2022-09-09T03:48:42;0.80;;;0.80;;
18224;SDS011;9237;48.590;8.854;2022-09-09T03:51:10;0.70;;;0.70;;
18224;SDS011;9237;48.590;8.854;2022-09-09T03:53:37;0.80;;;0.80;;
18224;SDS011;9237;48.590;8.854;2022-09-09T03:56:04;0.80;;;0.80;;
18224;SDS011;9237;48.590;8.854;2022-09-09T03:58:32;0.70;;;0.70;;
18224;SDS011;9237;48.590;8.854;2022-09-09T04:01:00;0.80;;;0.80;;
18224;SDS011;9237;48.590;8.854;2022-09-09T04:03:29;0.70;;;0.70;;
18224;SDS011;9237;48.590;8.854;2022-09-09T04:05:57;0.77;;;0.77;;
18224;SDS011;9237;48.590;8.854;2022-09-09T04:08:27;0.80;;;0.80;;
18224;SDS011;9237;48.590;8.854;2022-09-09T04:10:56;0.80;;;0.80;;
18224;SDS011;9237;48.590;8.854;2022-09-09T04:13:23;0.80;;;0.80;;
18224;SDS011;9237;48.590;8.854;2022-09-09T04:15:52;0.77;;;0.77;;
18224;SDS011;9237;48.590;8.854;2022-09-09T04:18:20;0.80;;;0.80;;
18224;SDS011;9237;48.590;8.854;2022-09-09T04:20:47;0.80;;;0.80;;
18224;SDS011;9237;48.590;8.854;2022-09-09T04:23:15;0.80;;;0.80;;
18224;SDS011;9237;48.590;8.854;2022-09-09T04:25:45;0.73;;;0.73;;
18224;SDS011;9237;48.590;8.854;2022-09-09T04:28:12;0.80;;;0.80;;
18224;SDS011;9237;48.590;8.854;2022-09-09T04:30:40;0.80;;;0.80;;
18224;SDS011;9237;48.590;8.854;2022-09-09T04:33:07;0.80;;;0.80;;
18224;SDS011;9237;48.590;8.854;2022-09-09T04:35:34;0.70;;;0.70;;
18224;SDS011;9237;48.590;8.854;2022-09-09T04:38:02;0.80;;;0.80;;
18224;SDS011;9237;48.590;8.854;2022-09-09T04:40:29;0.73;;;0.73;;
18224;SDS011;9237;48.590;8.854;2022-09-09T04:42:58;0.80;;;0.80;;
18224;SDS011;9237;48.590;8.854;2022-09-09T04:45:25;0.80;;;0.80;;
18224;SDS011;9237;48.590;8.854;2022-09-09T04:47:53;0.80;;;0.80;;
18224;SDS011;9237;48.590;8.854;2022-09-09T04:50:20;0.80;;;0.80;;
18224;SDS011;9237;48.590;8.854;2022-09-09T04:52:47;0.80;;;0.80;;
18224;SDS011;9237;48.590;8.854;2022-09-09T04:55:14;0.80;;;0.80;;
18224;SDS011;9237;48.590;8.854;2022-09-09T04:57:41;0.70;;;0.70;;
18224;SDS011;9237;48.590;8.854;2022-09-09T05:00:10;0.70;;;0.70;;
18224;SDS011;9237;48.590;8.854;2022-09-09T05:02:37;0.80;;;0.80;;
18224;SDS011;9237;48.590;8.854;2022-09-09T05:05:05;0.80;;;0.80;;
18224;SDS011;9237;48.590;8.854;2022-09-09T05:07:32;0.70;;;0.70;;
18224;SDS011;9237;48.590;8.854;2022-09-09T05:09:59;0.70;;;0.70;;
18224;SDS011;9237;48.590;8.854;2022-09-09T05:12:26;0.70;;;0.70;;
18224;SDS011;9237;48.590;8.854;2022-09-09T05:14:53;0.70;;;0.70;;
18224;SDS011;9237;48.590;8.854;2022-09-09T05:17:22;0.70;;;0.70;;
18224;SDS011;9237;48.590;8.854;2022-09-09T05:19:49;0.70;;;0.70;;
18224;SDS011;9237;48.590;8.854;2022-09-09T05:22:18;0.70;;;0.70;;
18224;SDS011;9237;48.590;8.854;2022-09-09T05:24:46;0.70;;;0.70;;
18224;SDS011;9237;48.590;8.854;2022-09-09T05:27:15;0.70;;;0.70;;
18224;SDS011;9237;48.590;8.854;2022-09-09T05:29:43;0.70;;;0.70;;
18224;SDS011;9237;48.590;8.854;2022-09-09T05:32:10;0.70;;;0.70;;
18224;SDS011;9237;48.590;8.854;2022-09-09T05:34:40;0.70;;;0.70;;
18224;SDS011;9237;48.590;8.854;2022-09-09T05:37:06;0.70;;;0.70;;
18224;SDS011;9237;48.590;8.854;2022-09-09T05:39:33;0.70;;;0.70;;
18224;SDS011;9237;48.590;8.854;2022-09-09T05:42:02;0.73;;;0.73;;
18224;SDS011;9237;48.590;8.854;2022-09-09T05:44:29;0.80;;;0.80;;
18224;SDS011;9237;48.590;8.854;2022-09-09T05:46:56;0.70;;;0.70;;
18224;SDS011;9237;48.590;8.854;2022-09-09T05:49:23;0.63;;;0.63;;
18224;SDS011;9237;48.590;8.854;2022-09-09T05:51:55;0.70;;;0.70;;
18224;SDS011;9237;48.590;8.854;2022-09-09T05:54:23;0.70;;;0.70;;
18224;SDS011;9237;48.590;8.854;2022-09-09T05:56:50;0.70;;;0.70;;
18224;SDS011;9237;48.590;8.854;2022-09-09T05:59:18;0.70;;;0.70;;
18224;SDS011;9237;48.590;8.854;2022-09-09T06:01:45;0.70;;;0.70;;
18224;SDS011;9237;48.590;8.854;2022-09-09T06:04:12;0.70;;;0.70;;
18224;SDS011;9237;48.590;8.854;2022-09-09T06:06:39;0.70;;;0.70;;
18224;SDS011;9237;48.590;8.854;2022-09-09T06:09:09;0.70;;;0.70;;
18224;SDS011;9237;48.590;8.854;2022-09-09T06:11:36;0.60;;;0.60;;
18224;SDS011;9237;48.590;8.854;2022-09-09T06:14:05;0.70;;;0.70;;
18224;SDS011;9237;48.590;8.854;2022-09-09T06:16:32;0.70;;;0.70;;
18224;SDS011;9237;48.590;8.854;2022-09-09T06:19:00;0.70;;;0.70;;
18224;SDS011;9237;48.590;8.854;2022-09-09T06:21:28;0.80;;;0.80;;
18224;SDS011;9237;48.590;8.854;2022-09-09T06:23:58;0.70;;;0.70;;
18224;SDS011;9237;48.590;8.854;2022-09-09T06:26:27;0.70;;;0.70;;
18224;SDS011;9237;48.590;8.854;2022-09-09T06:28:55;0.60;;;0.60;;
18224;SDS011;9237;48.590;8.854;2022-09-09T06:31:23;0.70;;;0.70;;
18224;SDS011;9237;48.590;8.854;2022-09-09T06:33:52;0.70;;;0.70;;
18224;SDS011;9237;48.590;8.854;2022-09-09T06:36:20;0.70;;;0.70;;
18224;SDS011;9237;48.590;8.854;2022-09-09T06:38:49;0.70;;;0.70;;
18224;SDS011;9237;48.590;8.854;2022-09-09T06:41:16;0.70;;;0.70;;
18224;SDS011;9237;48.590;8.854;2022-09-09T06:43:46;0.70;;;0.70;;
18224;SDS011;9237;48.590;8.854;2022-09-09T06:46:13;0.70;;;0.70;;
18224;SDS011;9237;48.590;8.854;2022-09-09T06:48:42;0.73;;;0.73;;
18224;SDS011;9237;48.590;8.854;2022-09-09T06:51:11;0.70;;;0.70;;
18224;SDS011;9237;48.590;8.854;2022-09-09T06:53:39;0.70;;;0.70;;
18224;SDS011;9237;48.590;8.854;2022-09-09T06:56:17;0.70;;;0.70;;
18224;SDS011;9237;48.590;8.854;2022-09-09T06:58:47;0.70;;;0.70;;
18224;SDS011;9237;48.590;8.854;2022-09-09T07:01:14;0.70;;;0.70;;
18224;SDS011;9237;48.590;8.854;2022-09-09T07:03:42;0.70;;;0.70;;
18224;SDS011;9237;48.590;8.854;2022-09-09T07:06:14;0.70;;;0.70;;
18224;SDS011;9237;48.590;8.854;2022-09-09T07:08:42;0.70;;;0.70;;
18224;SDS011;9237;48.590;8.854;2022-09-09T07:11:09;0.70;;;0.70;;
18224;SDS011;9237;48.590;8.854;2022-09-09T07:13:37;0.70;;;0.70;;
18224;SDS011;9237;48.590;8.854;2022-09-09T07:16:05;0.70;;;0.70;;
18224;SDS011;9237;48.590;8.854;2022-09-09T07:18:34;0.70;;;0.70;;
18224;SDS011;9237;48.590;8.854;2022-09-09T07:21:02;0.70;;;0.70;;
18224;SDS011;9237;48.590;8.854;2022-09-09T07:23:30;0.70;;;0.70;;
18224;SDS011;9237;48.590;8.854;2022-09-09T07:25:57;0.70;;;0.70;;
18224;SDS011;9237;48.590;8.854;2022-09-09T07:28:24;0.70;;;0.70;;
18224;SDS011;9237;48.590;8.854;2022-09-09T07:30:53;0.60;;;0.60;;
18224;SDS011;9237;48.590;8.854;2022-09-09T07:33:21;0.70;;;0.70;;
18224;SDS011;9237;48.590;8.854;2022-09-09T07:35:49;0.60;;;0.60;;
18224;SDS011;9237;48.590;8.854;2022-09-09T07:38:16;0.70;;;0.70;;
18224;SDS011;9237;48.590;8.854;2022-09-09T07:40:43;0.70;;;0.70;;
18224;SDS011;9237;48.590;8.854;2022-09-09T07:43:10;0.70;;;0.70;;
18224;SDS011;9237;48.590;8.854;2022-09-09T07:45:37;0.70;;;0.70;;
18224;SDS011;9237;48.590;8.854;2022-09-09T07:48:05;0.70;;;0.70;;
18224;SDS011;9237;48.590;8.854;2022-09-09T07:50:33;0.60;;;0.60;;
18224;SDS011;9237;48.590;8.854;2022-09-09T07:53:00;0.60;;;0.60;;
18224;SDS011;9237;48.590;8.854;2022-09-09T07:55:27;0.70;;;0.70;;
18224;SDS011;9237;48.590;8.854;2022-09-09T07:57:55;0.60;;;0.60;;
18224;SDS011;9237;48.590;8.854;2022-09-09T08:00:22;0.60;;;0.60;;
18224;SDS011;9237;48.590;8.854;2022-09-09T08:02:49;0.60;;;0.60;;
18224;SDS011;9237;48.590;8.854;2022-09-09T08:05:17;0.50;;;0.50;;
18224;SDS011;9237;48.590;8.854;2022-09-09T08:07:45;0.60;;;0.60;;
18224;SDS011;9237;48.590;8.854;2022-09-09T08:10:12;0.50;;;0.50;;
18224;SDS011;9237;48.590;8.854;2022-09-09T08:12:39;0.50;;;0.50;;
18224;SDS011;9237;48.590;8.854;2022-09-09T08:15:07;0.50;;;0.50;;
18224;SDS011;9237;48.590;8.854;2022-09-09T08:17:34;0.50;;;0.50;;
18224;SDS011;9237;48.590;8.854;2022-09-09T08:20:02;0.50;;;0.50;;
18224;SDS011;9237;48.590;8.854;2022-09-09T08:22:31;0.50;;;0.50;;
18224;SDS011;9237;48.590;8.854;2022-09-09T08:25:00;0.50;;;0.50;;
18224;SDS011;9237;48.590;8.854;2022-09-09T08:27:27;0.40;;;0.40;;
18224;SDS011;9237;48.590;8.854;2022-09-09T08:29:54;0.40;;;0.40;;
18224;SDS011;9237;48.590;8.854;2022-09-09T08:32:22;0.38;;;0.38;;
18224;SDS011;9237;48.590;8.854;2022-09-09T08:34:48;0.40;;;0.40;;
18224;SDS011;9237;48.590;8.854;2022-09-09T08:37:16;0.40;;;0.40;;
18224;SDS011;9237;48.590;8.854;2022-09-09T08:39:44;0.40;;;0.40;;
18224;SDS011;9237;48.590;8.854;2022-09-09T08:42:19;0.40;;;0.40;;
18224;SDS011;9237;48.590;8.854;2022-09-09T08:45:05;0.40;;;0.40;;
18224;SDS011;9237;48.590;8.854;2022-09-09T08:47:42;0.50;;;0.50;;
18224;SDS011;9237;48.590;8.854;2022-09-09T08:50:21;0.50;;;0.50;;
18224;SDS011;9237;48.590;8.854;2022-09-09T08:52:53;0.60;;;0.60;;
18224;SDS011;9237;48.590;8.854;2022-09-09T08:55:27;0.60;;;0.60;;
18224;SDS011;9237;48.590;8.854;2022-09-09T08:58:04;0.70;;;0.70;;
18224;SDS011;9237;48.590;8.854;2022-09-09T09:00:38;0.70;;;0.70;;
18224;SDS011;9237;48.590;8.854;2022-09-09T09:03:15;0.70;;;0.70;;
18224;SDS011;9237;48.590;8.854;2022-09-09T09:05:51;0.60;;;0.60;;
18224;SDS011;9237;48.590;8.854;2022-09-09T09:08:29;0.60;;;0.60;;
18224;SDS011;9237;48.590;8.854;2022-09-09T09:10:59;0.63;;;0.63;;
18224;SDS011;9237;48.590;8.854;2022-09-09T09:13:30;0.70;;;0.70;;
18224;SDS011;9237;48.590;8.854;2022-09-09T09:16:06;0.70;;;0.70;;
18224;SDS011;9237;48.590;8.854;2022-09-09T09:18:49;0.70;;;0.70;;
18224;SDS011;9237;48.590;8.854;2022-09-09T09:21:18;0.67;;;0.67;;
18224;SDS011;9237;48.590;8.854;2022-09-09T09:24:00;0.60;;;0.60;;
18224;SDS011;9237;48.590;8.854;2022-09-09T09:26:30;0.60;;;0.60;;
18224;SDS011;9237;48.590;8.854;2022-09-09T09:29:03;0.60;;;0.60;;
18224;SDS011;9237;48.590;8.854;2022-09-09T09:31:37;0.50;;;0.50;;
18224;SDS011;9237;48.590;8.854;2022-09-09T09:34:04;0.60;;;0.60;;
18224;SDS011;9237;48.590;8.854;2022-09-09T09:36:34;0.60;;;0.60;;
18224;SDS011;9237;48.590;8.854;2022-09-09T09:39:06;0.52;;;0.52;;
18224;SDS011;9237;48.590;8.854;2022-09-09T09:41:35;0.60;;;0.60;;
18224;SDS011;9237;48.590;8.854;2022-09-09T09:44:18;0.50;;;0.50;;
18224;SDS011;9237;48.590;8.854;2022-09-09T09:46:49;0.60;;;0.60;;
18224;SDS011;9237;48.590;8.854;2022-09-09T09:49:16;0.60;;;0.60;;
18224;SDS011;9237;48.590;8.854;2022-09-09T09:51:43;0.60;;;0.60;;
18224;SDS011;9237;48.590;8.854;2022-09-09T09:54:15;0.60;;;0.60;;
18224;SDS011;9237;48.590;8.854;2022-09-09T09:56:46;0.60;;;0.60;;
18224;SDS011;9237;48.590;8.854;2022-09-09T09:59:22;0.60;;;0.60;;
18224;SDS011;9237;48.590;8.854;2022-09-09T10:02:05;0.50;;;0.50;;
18224;SDS011;9237;48.590;8.854;2022-09-09T10:04:43;0.60;;;0.60;;
18224;SDS011;9237;48.590;8.854;2022-09-09T10:07:11;0.55;;;0.55;;
18224;SDS011;9237;48.590;8.854;2022-09-09T10:09:39;0.60;;;0.60;;
18224;SDS011;9237;48.590;8.854;2022-09-09T10:12:09;0.50;;;0.50;;
18224;SDS011;9237;48.590;8.854;2022-09-09T10:14:49;0.50;;;0.50;;
18224;SDS011;9237;48.590;8.854;2022-09-09T10:17:25;0.50;;;0.50;;
18224;SDS011;9237;48.590;8.854;2022-09-09T10:20:11;0.57;;;0.57;;
18224;SDS011;9237;48.590;8.854;2022-09-09T10:22:50;0.57;;;0.57;;
18224;SDS011;9237;48.590;8.854;2022-09-09T10:25:24;0.50;;;0.50;;
18224;SDS011;9237;48.590;8.854;2022-09-09T10:28:03;0.60;;;0.60;;
18224;SDS011;9237;48.590;8.854;2022-09-09T10:31:04;0.60;;;0.60;;
18224;SDS011;9237;48.590;8.854;2022-09-09T10:33:46;0.60;;;0.60;;
18224;SDS011;9237;48.590;8.854;2022-09-09T10:36:18;0.60;;;0.60;;
18224;SDS011;9237;48.590;8.854;2022-09-09T10:38:47;0.60;;;0.60;;
18224;SDS011;9237;48.590;8.854;2022-09-09T10:41:19;0.60;;;0.60;;
18224;SDS011;9237;48.590;8.854;2022-09-09T10:44:13;0.60;;;0.60;;
18224;SDS011;9237;48.590;8.854;2022-09-09T10:47:02;0.60;;;0.60;;
18224;SDS011;9237;48.590;8.854;2022-09-09T10:49:55;0.50;;;0.50;;
18224;SDS011;9237;48.590;8.854;2022-09-09T10:52:35;0.60;;;0.60;;
18224;SDS011;9237;48.590;8.854;2022-09-09T10:55:09;0.60;;;0.60;;
18224;SDS011;9237;48.590;8.854;2022-09-09T10:57:40;0.60;;;0.60;;
18224;SDS011;9237;48.590;8.854;2022-09-09T11:00:14;0.60;;;0.60;;
18224;SDS011;9237;48.590;8.854;2022-09-09T11:02:45;0.60;;;0.60;;
18224;SDS011;9237;48.590;8.854;2022-09-09T11:05:19;0.70;;;0.70;;
18224;SDS011;9237;48.590;8.854;2022-09-09T11:07:48;0.60;;;0.60;;
18224;SDS011;9237;48.590;8.854;2022-09-09T11:10:21;0.60;;;0.60;;
18224;SDS011;9237;48.590;8.854;2022-09-09T11:12:56;0.70;;;0.70;;
18224;SDS011;9237;48.590;8.854;2022-09-09T11:15:29;0.70;;;0.70;;
18224;SDS011;9237;48.590;8.854;2022-09-09T11:18:04;0.70;;;0.70;;
18224;SDS011;9237;48.590;8.854;2022-09-09T11:20:32;0.70;;;0.70;;
18224;SDS011;9237;48.590;8.854;2022-09-09T11:23:00;0.70;;;0.70;;
18224;SDS011;9237;48.590;8.854;2022-09-09T11:25:31;0.60;;;0.60;;
18224;SDS011;9237;48.590;8.854;2022-09-09T11:28:12;0.60;;;0.60;;
18224;SDS011;9237;48.590;8.854;2022-09-09T11:30:53;0.60;;;0.60;;
18224;SDS011;9237;48.590;8.854;2022-09-09T11:33:33;0.60;;;0.60;;
18224;SDS011;9237;48.590;8.854;2022-09-09T11:39:17;0.60;;;0.60;;
18224;SDS011;9237;48.590;8.854;2022-09-09T11:42:12;0.70;;;0.70;;
18224;SDS011;9237;48.590;8.854;2022-09-09T11:44:43;0.60;;;0.60;;
18224;SDS011;9237;48.590;8.854;2022-09-09T11:47:16;0.60;;;0.60;;
18224;SDS011;9237;48.590;8.854;2022-09-09T11:49:49;0.60;;;0.60;;
18224;SDS011;9237;48.590;8.854;2022-09-09T11:52:20;0.50;;;0.50;;
18224;SDS011;9237;48.590;8.854;2022-09-09T11:54:50;0.60;;;0.60;;
18224;SDS011;9237;48.590;8.854;2022-09-09T11:57:22;0.60;;;0.60;;
18224;SDS011;9237;48.590;8.854;2022-09-09T11:59:51;0.70;;;0.70;;
18224;SDS011;9237;48.590;8.854;2022-09-09T12:02:21;0.60;;;0.60;;
18224;SDS011;9237;48.590;8.854;2022-09-09T12:04:55;0.60;;;0.60;;
18224;SDS011;9237;48.590;8.854;2022-09-09T12:07:31;0.60;;;0.60;;
18224;SDS011;9237;48.590;8.854;2022-09-09T12:10:03;0.60;;;0.60;;
18224;SDS011;9237;48.590;8.854;2022-09-09T12:12:33;0.70;;;0.70;;
18224;SDS011;9237;48.590;8.854;2022-09-09T12:15:03;0.70;;;0.70;;
18224;SDS011;9237;48.590;8.854;2022-09-09T12:17:49;0.70;;;0.70;;
18224;SDS011;9237;48.590;8.854;2022-09-09T12:20:20;0.70;;;0.70;;
18224;SDS011;9237;48.590;8.854;2022-09-09T12:25:44;0.70;;;0.70;;
18224;SDS011;9237;48.590;8.854;2022-09-09T12:28:22;0.70;;;0.70;;
18224;SDS011;9237;48.590;8.854;2022-09-09T12:30:53;0.60;;;0.60;;
18224;SDS011;9237;48.590;8.854;2022-09-09T12:33:33;0.60;;;0.60;;
18224;SDS011;9237;48.590;8.854;2022-09-09T12:36:02;0.60;;;0.60;;
18224;SDS011;9237;48.590;8.854;2022-09-09T12:38:32;0.60;;;0.60;;
18224;SDS011;9237;48.590;8.854;2022-09-09T12:41:01;0.53;;;0.53;;
18224;SDS011;9237;48.590;8.854;2022-09-09T12:43:29;0.60;;;0.60;;
18224;SDS011;9237;48.590;8.854;2022-09-09T12:45:56;0.50;;;0.50;;
18224;SDS011;9237;48.590;8.854;2022-09-09T12:48:30;0.50;;;0.50;;
18224;SDS011;9237;48.590;8.854;2022-09-09T12:51:16;0.50;;;0.50;;
18224;SDS011;9237;48.590;8.854;2022-09-09T12:53:45;0.50;;;0.50;;
18224;SDS011;9237;48.590;8.854;2022-09-09T12:56:18;0.50;;;0.50;;
18224;SDS011;9237;48.590;8.854;2022-09-09T12:58:46;0.50;;;0.50;;
18224;SDS011;9237;48.590;8.854;2022-09-09T13:01:18;0.40;;;0.40;;
18224;SDS011;9237;48.590;8.854;2022-09-09T13:03:48;0.50;;;0.50;;
18224;SDS011;9237;48.590;8.854;2022-09-09T13:06:19;0.50;;;0.50;;
18224;SDS011;9237;48.590;8.854;2022-09-09T13:08:48;0.60;;;0.60;;
18224;SDS011;9237;48.590;8.854;2022-09-09T13:11:17;0.50;;;0.50;;
18224;SDS011;9237;48.590;8.854;2022-09-09T13:13:52;0.60;;;0.60;;
18224;SDS011;9237;48.590;8.854;2022-09-09T13:16:21;0.57;;;0.57;;
18224;SDS011;9237;48.590;8.854;2022-09-09T13:18:51;0.50;;;0.50;;
18224;SDS011;9237;48.590;8.854;2022-09-09T13:21:19;0.50;;;0.50;;
18224;SDS011;9237;48.590;8.854;2022-09-09T13:23:56;0.50;;;0.50;;
18224;SDS011;9237;48.590;8.854;2022-09-09T13:26:28;0.50;;;0.50;;
18224;SDS011;9237;48.590;8.854;2022-09-09T13:28:55;0.50;;;0.50;;
18224;SDS011;9237;48.590;8.854;2022-09-09T13:31:41;0.50;;;0.50;;
18224;SDS011;9237;48.590;8.854;2022-09-09T13:34:12;0.50;;;0.50;;
18224;SDS011;9237;48.590;8.854;2022-09-09T13:36:41;0.50;;;0.50;;
18224;SDS011;9237;48.590;8.854;2022-09-09T13:39:14;0.50;;;0.50;;
18224;SDS011;9237;48.590;8.854;2022-09-09T13:41:44;0.50;;;0.50;;
18224;SDS011;9237;48.590;8.854;2022-09-09T13:44:14;0.50;;;0.50;;
18224;SDS011;9237;48.590;8.854;2022-09-09T13:46:45;0.50;;;0.50;;
18224;SDS011;9237;48.590;8.854;2022-09-09T13:49:19;0.45;;;0.45;;
18224;SDS011;9237;48.590;8.854;2022-09-09T13:51:49;0.40;;;0.40;;
18224;SDS011;9237;48.590;8.854;2022-09-09T13:54:19;0.50;;;0.50;;
18224;SDS011;9237;48.590;8.854;2022-09-09T13:56:47;0.45;;;0.45;;
18224;SDS011;9237;48.590;8.854;2022-09-09T13:59:16;0.50;;;0.50;;
18224;SDS011;9237;48.590;8.854;2022-09-09T14:01:44;0.50;;;0.50;;
18224;SDS011;9237;48.590;8.854;2022-09-09T14:04:11;0.40;;;0.40;;
18224;SDS011;9237;48.590;8.854;2022-09-09T14:06:38;0.50;;;0.50;;
18224;SDS011;9237;48.590;8.854;2022-09-09T14:09:09;0.40;;;0.40;;
18224;SDS011;9237;48.590;8.854;2022-09-09T14:11:37;0.47;;;0.47;;
18224;SDS011;9237;48.590;8.854;2022-09-09T14:14:05;0.47;;;0.47;;
18224;SDS011;9237;48.590;8.854;2022-09-09T14:16:32;0.40;;;0.40;;
18224;SDS011;9237;48.590;8.854;2022-09-09T14:18:59;0.50;;;0.50;;
18224;SDS011;9237;48.590;8.854;2022-09-09T14:21:26;0.50;;;0.50;;
18224;SDS011;9237;48.590;8.854;2022-09-09T14:23:54;0.40;;;0.40;;
18224;SDS011;9237;48.590;8.854;2022-09-09T14:26:24;0.40;;;0.40;;
18224;SDS011;9237;48.590;8.854;2022-09-09T14:28:51;0.40;;;0.40;;
18224;SDS011;9237;48.590;8.854;2022-09-09T14:31:18;0.50;;;0.50;;
18224;SDS011;9237;48.590;8.854;2022-09-09T14:33:46;0.50;;;0.50;;
18224;SDS011;9237;48.590;8.854;2022-09-09T14:36:12;0.40;;;0.40;;
18224;SDS011;9237;48.590;8.854;2022-09-09T14:38:40;0.40;;;0.40;;
18224;SDS011;9237;48.590;8.854;2022-09-09T14:41:08;0.40;;;0.40;;
18224;SDS011;9237;48.590;8.854;2022-09-09T14:43:38;0.50;;;0.50;;
18224;SDS011;9237;48.590;8.854;2022-09-09T14:46:05;0.40;;;0.40;;
18224;SDS011;9237;48.590;8.854;2022-09-09T14:48:33;0.40;;;0.40;;
18224;SDS011;9237;48.590;8.854;2022-09-09T14:51:04;0.47;;;0.47;;
18224;SDS011;9237;48.590;8.854;2022-09-09T14:53:32;0.50;;;0.50;;
18224;SDS011;9237;48.590;8.854;2022-09-09T14:56:03;0.40;;;0.40;;
18224;SDS011;9237;48.590;8.854;2022-09-09T14:58:31;0.50;;;0.50;;
18224;SDS011;9237;48.590;8.854;2022-09-09T15:01:03;0.50;;;0.50;;
18224;SDS011;9237;48.590;8.854;2022-09-09T15:03:30;0.50;;;0.50;;
18224;SDS011;9237;48.590;8.854;2022-09-09T15:05:57;0.50;;;0.50;;
18224;SDS011;9237;48.590;8.854;2022-09-09T15:08:24;0.40;;;0.40;;
18224;SDS011;9237;48.590;8.854;2022-09-09T15:10:58;0.50;;;0.50;;
18224;SDS011;9237;48.590;8.854;2022-09-09T15:13:25;0.40;;;0.40;;
18224;SDS011;9237;48.590;8.854;2022-09-09T15:15:53;0.50;;;0.50;;
18224;SDS011;9237;48.590;8.854;2022-09-09T15:18:21;0.50;;;0.50;;
18224;SDS011;9237;48.590;8.854;2022-09-09T15:20:48;0.50;;;0.50;;
18224;SDS011;9237;48.590;8.854;2022-09-09T15:23:15;0.47;;;0.47;;
18224;SDS011;9237;48.590;8.854;2022-09-09T15:28:24;0.50;;;0.50;;
18224;SDS011;9237;48.590;8.854;2022-09-09T15:30:52;0.50;;;0.50;;
18224;SDS011;9237;48.590;8.854;2022-09-09T15:33:20;0.50;;;0.50;;
18224;SDS011;9237;48.590;8.854;2022-09-09T15:35:48;0.50;;;0.50;;